createdAt,value
2018-04-22T00:02:18.523Z,7.37
2018-04-22T00:04:47.493Z,6.30
2018-04-22T00:07:16.418Z,5.77
2018-04-22T00:09:45.300Z,5.67
2018-04-22T00:12:14.215Z,4.90
2018-04-22T00:14:43.292Z,4.90
2018-04-22T00:17:12.198Z,4.30
2018-04-22T00:19:41.162Z,5.03
2018-04-22T00:22:10.124Z,4.50
2018-04-22T00:24:39.110Z,4.97
2018-04-22T00:27:08.009Z,4.43
2018-04-22T00:29:36.880Z,4.33
2018-04-22T00:32:05.852Z,4.70
2018-04-22T00:34:34.892Z,4.57
2018-04-22T00:37:03.816Z,4.53
2018-04-22T00:39:32.828Z,4.03
2018-04-22T00:42:01.736Z,4.00
2018-04-22T00:44:30.639Z,4.20
2018-04-22T00:46:59.768Z,4.77
2018-04-22T00:49:28.647Z,4.63
2018-04-22T00:51:57.550Z,3.97
2018-04-22T00:54:26.456Z,4.20
2018-04-22T00:56:55.588Z,4.47
2018-04-22T00:59:24.485Z,4.37
2018-04-22T01:01:53.467Z,4.30
2018-04-22T01:04:22.370Z,4.03
2018-04-22T01:06:51.328Z,4.10
2018-04-22T01:09:20.200Z,4.40
2018-04-22T01:11:49.147Z,4.00
2018-04-22T01:14:18.823Z,5.63
2018-04-22T01:16:47.699Z,4.60
2018-04-22T01:19:16.659Z,3.77
2018-04-22T01:21:46.401Z,4.27
2018-04-22T01:24:15.364Z,3.87
2018-04-22T01:26:45.062Z,4.03
2018-04-22T01:29:13.927Z,4.20
2018-04-22T01:31:42.821Z,3.80
2018-04-22T01:34:11.785Z,4.13
2018-04-22T01:36:40.715Z,4.07
2018-04-22T01:39:09.672Z,4.13
2018-04-22T01:41:38.593Z,3.80
2018-04-22T01:44:07.478Z,4.67
2018-04-22T01:46:36.399Z,4.73
2018-04-22T01:49:06.128Z,4.93
2018-04-22T01:51:35.803Z,4.80
2018-04-22T01:54:04.697Z,5.47
2018-04-22T01:56:33.575Z,4.63
2018-04-22T01:59:02.461Z,4.47
2018-04-22T02:01:31.540Z,4.07
2018-04-22T02:04:00.678Z,4.37
2018-04-22T02:06:29.544Z,4.57
2018-04-22T02:08:58.489Z,4.10
2018-04-22T02:11:27.388Z,4.57
2018-04-22T02:13:56.424Z,5.20
2018-04-22T02:16:25.536Z,4.77
2018-04-22T02:18:54.420Z,5.20
2018-04-22T02:21:23.308Z,4.97
2018-04-22T02:23:52.465Z,4.93
2018-04-22T02:26:21.380Z,4.80
2018-04-22T02:28:50.423Z,5.20
2018-04-22T02:31:19.394Z,4.73
2018-04-22T02:33:48.289Z,6.67
2018-04-22T02:36:17.197Z,5.80
2018-04-22T02:38:46.111Z,5.77
2018-04-22T02:41:14.991Z,4.80
2018-04-22T02:43:43.885Z,4.27
2018-04-22T02:46:12.765Z,4.33
2018-04-22T02:48:41.703Z,5.60
2018-04-22T02:51:10.604Z,5.13
2018-04-22T02:53:39.552Z,5.07
2018-04-22T02:56:08.498Z,5.40
2018-04-22T02:58:37.448Z,4.87
2018-04-22T03:01:06.459Z,5.10
2018-04-22T03:03:35.351Z,5.40
2018-04-22T03:06:04.614Z,4.37
2018-04-22T03:08:33.491Z,4.70
2018-04-22T03:11:02.432Z,5.00
2018-04-22T03:13:31.326Z,4.30
2018-04-22T03:16:00.491Z,5.00
2018-04-22T03:18:29.412Z,4.40
2018-04-22T03:20:58.372Z,5.80
2018-04-22T03:23:27.296Z,5.13
2018-04-22T03:25:56.216Z,5.60
2018-04-22T03:28:25.881Z,7.00
2018-04-22T03:30:54.752Z,6.90
2018-04-22T03:33:23.765Z,7.03
2018-04-22T03:35:52.644Z,6.77
2018-04-22T03:38:21.692Z,6.17
2018-04-22T03:40:51.521Z,6.40
2018-04-22T03:43:20.429Z,6.23
2018-04-22T03:45:49.368Z,5.87
2018-04-22T03:48:18.348Z,6.10
2018-04-22T03:50:48.048Z,6.07
2018-04-22T03:53:16.936Z,5.33
2018-04-22T03:55:45.863Z,5.13
2018-04-22T03:58:14.753Z,4.50
2018-04-22T04:00:43.619Z,4.83
2018-04-22T04:03:12.555Z,4.90
2018-04-22T04:05:42.268Z,4.47
2018-04-22T04:08:11.953Z,4.47
2018-04-22T04:10:40.960Z,4.53
2018-04-22T04:13:09.844Z,5.00
2018-04-22T04:15:39.483Z,4.90
2018-04-22T04:21:53.200Z,5.00
2018-04-22T04:27:45.540Z,4.70
2018-04-22T04:30:14.473Z,4.03
2018-04-22T04:32:44.120Z,4.77
2018-04-22T04:35:13.008Z,4.90
2018-04-22T04:37:41.892Z,4.17
2018-04-22T04:40:10.787Z,4.40
2018-04-22T04:42:39.664Z,4.63
2018-04-22T04:45:08.552Z,4.13
2018-04-22T04:47:37.423Z,3.70
2018-04-22T04:50:06.451Z,4.37
2018-04-22T04:52:35.561Z,4.30
2018-04-22T04:55:04.483Z,4.47
2018-04-22T04:57:33.369Z,4.07
2018-04-22T05:00:02.369Z,3.73
2018-04-22T05:02:31.388Z,3.67
2018-04-22T05:05:01.038Z,3.80
2018-04-22T05:07:29.988Z,3.73
2018-04-22T05:09:58.916Z,3.63
2018-04-22T05:12:27.823Z,3.90
2018-04-22T05:14:56.812Z,4.10
2018-04-22T05:17:25.694Z,4.57
2018-04-22T05:19:54.623Z,5.70
2018-04-22T05:22:24.300Z,5.57
2018-04-22T05:24:53.216Z,4.80
2018-04-22T05:27:22.460Z,4.10
2018-04-22T05:29:51.393Z,5.50
2018-04-22T05:32:20.303Z,4.30
2018-04-22T05:34:49.520Z,3.20
2018-04-22T05:37:18.486Z,3.80
2018-04-22T05:39:47.377Z,4.83
2018-04-22T05:42:16.276Z,4.53
2018-04-22T05:44:45.152Z,4.00
2018-04-22T05:47:14.049Z,4.90
2018-04-22T05:49:42.952Z,4.10
2018-04-22T05:52:12.641Z,4.47
2018-04-22T05:54:41.549Z,4.20
2018-04-22T05:57:11.217Z,4.40
2018-04-22T05:59:40.160Z,4.27
2018-04-22T06:02:09.874Z,4.30
2018-04-22T06:04:39.648Z,4.20
2018-04-22T06:07:08.577Z,4.17
2018-04-22T06:09:37.470Z,3.72
2018-04-22T06:12:06.362Z,3.67
2018-04-22T06:14:35.653Z,3.62
2018-04-22T06:17:05.321Z,3.92
2018-04-22T06:19:34.262Z,4.12
2018-04-22T06:22:03.168Z,3.78
2018-04-22T06:24:32.247Z,3.33
2018-04-22T06:27:01.285Z,3.70
2018-04-22T06:29:31.068Z,3.60
2018-04-22T06:32:00.054Z,3.87
2018-04-22T06:34:28.959Z,4.07
2018-04-22T06:36:59.424Z,4.10
2018-04-22T06:39:28.419Z,5.03
2018-04-22T06:41:58.278Z,4.30
2018-04-22T06:44:27.383Z,4.22
2018-04-22T06:46:56.552Z,4.22
2018-04-22T06:49:25.668Z,4.47
2018-04-22T06:51:54.567Z,4.75
2018-04-22T06:54:23.499Z,4.00
2018-04-22T06:56:52.509Z,4.37
2018-04-22T06:59:22.223Z,4.55
2018-04-22T07:01:51.953Z,4.20
2018-04-22T07:04:20.864Z,4.85
2018-04-22T07:06:50.164Z,4.18
2018-04-22T07:09:19.168Z,5.75
2018-04-22T07:11:48.354Z,5.20
2018-04-22T07:14:17.319Z,5.20
2018-04-22T07:16:46.240Z,7.30
2018-04-22T07:19:15.609Z,4.70
2018-04-22T07:21:44.530Z,5.28
2018-04-22T07:24:13.679Z,4.45
2018-04-22T07:26:42.580Z,4.50
2018-04-22T07:29:12.313Z,4.85
2018-04-22T07:31:41.245Z,4.57
2018-04-22T07:34:10.175Z,4.72
2018-04-22T07:36:39.119Z,5.05
2018-04-22T07:39:08.046Z,5.12
2018-04-22T07:41:38.118Z,4.53
2018-04-22T07:44:07.094Z,4.97
2018-04-22T07:46:36.089Z,4.40
2018-04-22T07:49:05.181Z,4.70
2018-04-22T07:51:34.278Z,5.10
2018-04-22T07:54:03.213Z,5.82
2018-04-22T07:56:32.127Z,5.47
2018-04-22T07:59:01.925Z,5.18
2018-04-22T08:01:31.000Z,4.05
2018-04-22T08:04:00.243Z,4.78
2018-04-22T08:06:29.190Z,5.15
2018-04-22T08:08:58.291Z,4.75
2018-04-22T08:11:27.406Z,5.53
2018-04-22T08:13:56.622Z,5.90
2018-04-22T08:16:25.531Z,5.00
2018-04-22T08:18:54.577Z,4.62
2018-04-22T08:21:24.121Z,6.28
2018-04-22T08:23:53.096Z,5.78
2018-04-22T08:26:22.142Z,5.65
2018-04-22T08:28:51.220Z,5.60
2018-04-22T08:31:20.247Z,5.47
2018-04-22T08:33:49.350Z,5.72
2018-04-22T08:36:18.327Z,6.10
2018-04-22T08:38:47.579Z,5.87
2018-04-22T08:41:17.585Z,6.15
2018-04-22T08:43:47.240Z,6.82
2018-04-22T08:46:16.136Z,6.47
2018-04-22T08:48:45.098Z,5.68
2018-04-22T08:51:14.032Z,6.30
2018-04-22T08:53:42.978Z,5.32
2018-04-22T08:56:12.015Z,4.85
2018-04-22T08:58:40.948Z,5.85
2018-04-22T09:01:10.653Z,5.18
2018-04-22T09:03:40.396Z,5.93
2018-04-22T09:06:09.575Z,5.65
2018-04-22T09:08:38.544Z,5.72
2018-04-22T09:11:08.364Z,6.12
2018-04-22T09:13:38.866Z,6.00
2018-04-22T09:16:08.070Z,5.95
2018-04-22T09:18:38.513Z,5.28
2018-04-22T09:21:08.232Z,5.20
2018-04-22T09:23:38.096Z,5.80
2018-04-22T09:26:07.081Z,5.80
2018-04-22T09:28:36.231Z,7.50
2018-04-22T09:31:05.404Z,7.22
2018-04-22T09:33:35.148Z,7.53
2018-04-22T09:36:04.143Z,5.35
2018-04-22T09:38:33.112Z,6.12
2018-04-22T09:41:02.843Z,6.70
2018-04-22T09:43:32.783Z,5.95
2018-04-22T09:46:01.689Z,6.20
2018-04-22T09:48:30.616Z,6.82
2018-04-22T09:50:59.661Z,6.20
2018-04-22T09:53:29.139Z,7.25
2018-04-22T09:55:58.817Z,5.75
2018-04-22T09:58:27.824Z,6.55
2018-04-22T10:01:00.657Z,5.95
2018-04-22T10:03:31.815Z,5.80
2018-04-22T10:06:02.324Z,5.93
2018-04-22T10:08:31.348Z,6.85
2018-04-22T10:11:00.241Z,6.15
2018-04-22T10:13:29.188Z,7.62
2018-04-22T10:15:58.080Z,6.43
2018-04-22T10:18:27.041Z,6.70
2018-04-22T10:20:56.090Z,8.15
2018-04-22T10:23:25.180Z,8.07
2018-04-22T10:25:54.116Z,8.02
2018-04-22T10:28:23.160Z,6.07
2018-04-22T10:30:52.152Z,7.95
2018-04-22T10:33:21.097Z,7.10
2018-04-22T10:35:50.079Z,8.13
2018-04-22T10:38:18.995Z,7.60
2018-04-22T10:40:48.691Z,7.62
2018-04-22T10:43:17.692Z,7.50
2018-04-22T10:45:47.573Z,7.12
2018-04-22T10:48:16.498Z,7.28
2018-04-22T10:50:46.183Z,7.87
2018-04-22T10:53:15.128Z,8.27
2018-04-22T10:55:44.160Z,7.97
2018-04-22T10:58:13.116Z,7.25
2018-04-22T11:00:42.008Z,7.68
2018-04-22T11:03:11.024Z,7.68
2018-04-22T11:05:40.276Z,7.85
2018-04-22T11:08:09.253Z,6.75
2018-04-22T11:10:38.939Z,7.22
2018-04-22T11:13:07.864Z,8.00
2018-04-22T11:15:37.559Z,7.60
2018-04-22T11:18:07.247Z,7.90
2018-04-22T11:20:36.369Z,8.65
2018-04-22T11:23:06.055Z,9.10
2018-04-22T11:25:35.037Z,7.43
2018-04-22T11:28:04.001Z,9.10
2018-04-22T11:30:32.959Z,8.02
2018-04-22T11:33:02.149Z,8.63
2018-04-22T11:35:32.037Z,7.85
2018-04-22T11:38:01.028Z,8.40
2018-04-22T11:40:29.979Z,7.97
2018-04-22T11:42:58.958Z,8.32
2018-04-22T11:45:27.860Z,8.10
2018-04-22T11:47:56.791Z,8.60
2018-04-22T11:50:25.943Z,8.30
2018-04-22T11:52:54.890Z,8.43
2018-04-22T11:55:23.808Z,8.65
2018-04-22T11:57:53.767Z,7.50
2018-04-22T12:00:23.090Z,8.43
2018-04-22T12:02:52.249Z,9.43
2018-04-22T12:05:21.282Z,8.07
2018-04-22T12:07:50.263Z,7.95
2018-04-22T12:10:19.189Z,7.97
2018-04-22T12:12:48.172Z,7.40
2018-04-22T12:15:17.064Z,7.97
2018-04-22T12:17:46.222Z,9.93
2018-04-22T12:20:15.140Z,8.60
2018-04-22T12:22:44.115Z,8.15
2018-04-22T12:25:13.195Z,8.00
2018-04-22T12:27:42.596Z,7.57
2018-04-22T12:30:11.525Z,7.82
2018-04-22T12:32:40.452Z,7.70
2018-04-22T12:35:10.137Z,8.18
2018-04-22T12:37:39.056Z,8.95
2018-04-22T12:40:07.994Z,8.43
2018-04-22T12:42:37.073Z,8.82
2018-04-22T12:45:06.014Z,8.57
2018-04-22T12:47:34.959Z,8.35
2018-04-22T12:50:04.021Z,8.70
2018-04-22T12:52:33.077Z,8.07
2018-04-22T12:55:02.121Z,8.25
2018-04-22T12:57:31.026Z,9.05
2018-04-22T13:00:00.032Z,8.40
2018-04-22T13:02:28.940Z,8.02
2018-04-22T13:04:57.935Z,8.65
2018-04-22T13:07:27.072Z,7.03
2018-04-22T13:09:56.012Z,7.40
2018-04-22T13:12:24.944Z,7.62
2018-04-22T13:14:55.232Z,7.20
2018-04-22T13:17:24.527Z,6.78
2018-04-22T13:19:53.883Z,6.62
2018-04-22T13:22:23.547Z,6.18
2018-04-22T13:24:52.794Z,6.55
2018-04-22T13:27:22.102Z,6.82
2018-04-22T13:29:51.276Z,7.07
2018-04-22T13:32:20.983Z,6.50
2018-04-22T13:34:50.653Z,7.05
2018-04-22T13:37:19.597Z,7.12
2018-04-22T13:39:48.712Z,7.45
2018-04-22T13:42:17.736Z,9.48
2018-04-22T13:44:47.224Z,7.18
2018-04-22T13:47:16.143Z,7.07
2018-04-22T13:49:45.084Z,6.43
2018-04-22T13:52:14.033Z,6.55
2018-04-22T13:54:44.006Z,7.07
2018-04-22T13:57:12.965Z,6.07
2018-04-22T13:59:41.940Z,6.18
2018-04-22T14:02:11.104Z,6.20
2018-04-22T14:04:40.113Z,6.18
2018-04-22T14:07:09.400Z,6.07
2018-04-22T14:09:38.318Z,5.45
2018-04-22T14:12:07.321Z,6.07
2018-04-22T14:14:37.006Z,5.65
2018-04-22T14:17:05.976Z,5.15
2018-04-22T14:19:35.140Z,5.75
2018-04-22T14:22:04.272Z,6.37
2018-04-22T14:24:33.251Z,11.40
2018-04-22T14:27:02.232Z,12.37
2018-04-22T14:29:31.150Z,7.18
2018-04-22T14:32:00.206Z,6.30
2018-04-22T14:34:29.388Z,6.05
2018-04-22T14:36:59.239Z,6.85
2018-04-22T14:39:28.639Z,6.32
2018-04-22T14:41:57.573Z,5.80
2018-04-22T14:47:32.068Z,6.28
2018-04-22T14:50:01.744Z,6.40
2018-04-22T14:52:31.451Z,6.40
2018-04-22T14:55:01.154Z,6.10
2018-04-22T14:57:30.152Z,6.05
2018-04-22T14:59:59.946Z,7.25
2018-04-22T15:02:28.900Z,7.45
2018-04-22T15:04:57.824Z,6.53
2018-04-22T15:07:26.774Z,6.45
2018-04-22T15:09:56.294Z,6.32
2018-04-22T15:12:25.204Z,7.18
2018-04-22T15:14:54.540Z,6.30
2018-04-22T15:17:23.500Z,6.68
2018-04-22T15:19:52.643Z,7.25
2018-04-22T15:22:21.548Z,6.85
2018-04-22T15:24:50.488Z,6.37
2018-04-22T15:27:19.407Z,7.72
2018-04-22T15:29:48.318Z,7.30
2018-04-22T15:32:17.333Z,6.80
2018-04-22T15:34:46.254Z,6.57
2018-04-22T15:37:15.251Z,6.18
2018-04-22T15:39:44.372Z,6.40
2018-04-22T15:42:14.030Z,6.62
2018-04-22T15:44:43.065Z,8.50
2018-04-22T15:47:12.149Z,7.10
2018-04-22T15:49:41.078Z,6.87
2018-04-22T15:52:09.956Z,6.35
2018-04-22T15:54:40.068Z,6.50
2018-04-22T15:57:09.008Z,6.37
2018-04-22T15:59:38.185Z,7.43
2018-04-22T16:02:07.346Z,6.90
2018-04-22T16:04:36.893Z,6.75
2018-04-22T16:07:05.780Z,6.60
2018-04-22T16:09:34.695Z,6.05
2018-04-22T16:12:03.712Z,6.28
2018-04-22T16:14:32.765Z,20.77
2018-04-22T16:17:01.647Z,8.93
2018-04-22T16:19:31.694Z,10.10
2018-04-22T16:22:00.654Z,7.75
2018-04-22T16:24:29.841Z,6.95
2018-04-22T16:26:58.781Z,10.75
2018-04-22T16:29:27.771Z,7.30
2018-04-22T16:31:56.796Z,6.65
2018-04-22T16:34:26.505Z,6.75
2018-04-22T16:36:56.227Z,7.22
2018-04-22T16:39:25.209Z,6.37
2018-04-22T16:41:55.244Z,6.07
2018-04-22T16:44:24.277Z,6.68
2018-04-22T16:46:53.270Z,6.68
2018-04-22T16:49:22.261Z,6.70
2018-04-22T16:51:51.349Z,7.03
2018-04-22T16:54:20.309Z,7.30
2018-04-22T16:56:49.204Z,9.18
2018-04-22T16:59:18.103Z,7.82
2018-04-22T17:01:47.075Z,6.47
2018-04-22T17:04:16.833Z,7.18
2018-04-22T17:06:45.923Z,6.35
2018-04-22T17:09:14.834Z,7.00
2018-04-22T17:11:45.989Z,6.78
2018-04-22T17:14:15.721Z,6.65
2018-04-22T17:16:45.517Z,6.87
2018-04-22T17:19:14.557Z,7.12
2018-04-22T17:21:43.499Z,6.87
2018-04-22T17:24:12.582Z,7.05
2018-04-22T17:26:41.544Z,7.00
2018-04-22T17:29:10.581Z,7.35
2018-04-22T17:31:39.494Z,7.30
2018-04-22T17:34:09.753Z,8.20
2018-04-22T17:36:38.782Z,7.50
2018-04-22T17:39:07.784Z,6.85
2018-04-22T17:41:36.723Z,7.70
2018-04-22T17:44:05.704Z,7.80
2018-04-22T17:46:34.618Z,7.30
2018-04-22T17:49:03.907Z,8.05
2018-04-22T17:51:33.059Z,7.28
2018-04-22T17:54:02.322Z,7.87
2018-04-22T17:56:31.344Z,7.40
2018-04-22T17:59:01.153Z,7.25
2018-04-22T18:01:30.227Z,10.23
2018-04-22T18:03:59.328Z,9.55
2018-04-22T18:06:28.520Z,7.68
2018-04-22T18:08:57.652Z,6.90
2018-04-22T18:11:27.612Z,8.40
2018-04-22T18:13:56.598Z,8.90
2018-04-22T18:16:25.695Z,8.05
2018-04-22T18:18:55.012Z,7.78
2018-04-22T18:21:24.156Z,7.07
2018-04-22T18:23:53.919Z,7.93
2018-04-22T18:26:23.003Z,7.95
2018-04-22T18:28:51.997Z,7.43
2018-04-22T18:31:21.108Z,7.53
2018-04-22T18:33:50.090Z,6.65
2018-04-22T18:36:19.030Z,7.80
2018-04-22T18:38:48.031Z,6.90
2018-04-22T18:41:17.844Z,6.37
2018-04-22T18:43:47.579Z,6.83
2018-04-22T18:46:16.542Z,7.20
2018-04-22T18:48:45.948Z,6.55
2018-04-22T18:51:16.067Z,7.07
2018-04-22T18:53:45.785Z,8.00
2018-04-22T18:56:15.002Z,8.00
2018-04-22T18:58:44.216Z,8.23
2018-04-22T19:01:14.187Z,8.10
2018-04-22T19:03:43.314Z,8.07
2018-04-22T19:06:12.457Z,7.30
2018-04-22T19:08:41.517Z,7.77
2018-04-22T19:11:10.773Z,8.10
2018-04-22T19:13:41.204Z,7.57
2018-04-22T19:16:11.052Z,7.80
2018-04-22T19:18:40.147Z,6.73
2018-04-22T19:21:09.965Z,7.27
2018-04-22T19:23:38.912Z,7.50
2018-04-22T19:26:08.045Z,7.23
2018-04-22T19:28:37.205Z,7.40
2018-04-22T19:31:06.259Z,9.37
2018-04-22T19:33:35.641Z,11.90
2018-04-22T19:36:04.641Z,10.20
2018-04-22T19:38:33.814Z,9.40
2018-04-22T19:41:03.284Z,8.90
2018-04-22T19:43:33.286Z,8.07
2018-04-22T19:46:03.012Z,7.43
2018-04-22T19:48:32.923Z,7.93
2018-04-22T19:51:02.556Z,7.77
2018-04-22T19:53:31.572Z,7.80
2018-04-22T19:56:00.613Z,7.97
2018-04-22T19:58:29.669Z,8.07
2018-04-22T20:00:58.930Z,7.33
2018-04-22T20:03:28.699Z,8.17
2018-04-22T20:05:58.139Z,7.63
2018-04-22T20:08:27.699Z,7.00
2018-04-22T20:10:56.650Z,7.60
2018-04-22T20:13:25.956Z,7.60
2018-04-22T20:15:55.652Z,8.37
2018-04-22T20:18:25.128Z,7.70
2018-04-22T20:20:54.398Z,8.17
2018-04-22T20:23:23.836Z,7.93
2018-04-22T20:25:53.769Z,7.93
2018-04-22T20:28:23.062Z,8.73
2018-04-22T20:30:52.275Z,9.50
2018-04-22T20:33:21.695Z,8.23
2018-04-22T20:35:51.227Z,8.53
2018-04-22T20:38:20.481Z,7.83
2018-04-22T20:40:50.335Z,8.23
2018-04-22T20:43:19.751Z,8.03
2018-04-22T20:45:48.757Z,10.13
2018-04-22T20:48:17.774Z,8.67
2018-04-22T20:50:47.772Z,7.97
2018-04-22T20:53:16.811Z,8.73
2018-04-22T20:55:45.796Z,8.70
2018-04-22T20:58:14.698Z,8.90
2018-04-22T21:00:43.914Z,9.23
2018-04-22T21:03:13.836Z,8.97
2018-04-22T21:05:43.199Z,8.47
2018-04-22T21:08:12.365Z,9.00
2018-04-22T21:10:41.278Z,8.13
2018-04-22T21:13:10.212Z,8.73
2018-04-22T21:15:39.944Z,8.80
2018-04-22T21:18:08.854Z,8.73
2018-04-22T21:20:37.816Z,8.77
2018-04-22T21:23:06.902Z,9.30
2018-04-22T21:25:35.943Z,9.90
2018-04-22T21:28:05.684Z,9.60
2018-04-22T21:30:35.519Z,9.97
2018-04-22T21:33:04.602Z,9.53
2018-04-22T21:35:33.675Z,10.20
2018-04-22T21:38:03.975Z,9.83
2018-04-22T21:40:32.940Z,10.90
2018-04-22T21:43:01.899Z,10.17
2018-04-22T21:45:30.954Z,9.67
2018-04-22T21:48:00.217Z,10.03
2018-04-22T21:50:29.153Z,10.23
2018-04-22T21:52:58.830Z,10.23
2018-04-22T21:55:28.053Z,9.77
2018-04-22T21:57:58.063Z,9.90
2018-04-22T22:00:27.017Z,10.17
2018-04-22T22:02:55.954Z,10.07
2018-04-22T22:05:25.933Z,9.93
2018-04-22T22:07:54.860Z,10.20
2018-04-22T22:10:24.895Z,10.50
2018-04-22T22:12:54.585Z,10.10
2018-04-22T22:15:24.360Z,10.53
2018-04-22T22:17:53.326Z,9.30
2018-04-22T22:20:22.236Z,10.00
2018-04-22T22:22:51.173Z,9.77
2018-04-22T22:25:20.836Z,9.50
2018-04-22T22:27:49.947Z,9.07
2018-04-22T22:30:19.009Z,8.70
2018-04-22T22:32:47.958Z,9.33
2018-04-22T22:35:17.645Z,8.80
2018-04-22T22:37:46.567Z,8.43
2018-04-22T22:40:16.239Z,9.20
2018-04-22T22:42:45.168Z,8.27
2018-04-22T22:45:14.847Z,8.30
2018-04-22T22:47:43.801Z,7.50
2018-04-22T22:50:12.729Z,8.10
2018-04-22T22:52:41.644Z,8.57
2018-04-22T22:55:10.527Z,8.57
2018-04-22T22:57:39.506Z,8.20
2018-04-22T23:00:08.420Z,8.60
2018-04-22T23:02:37.333Z,8.07
2018-04-22T23:05:06.242Z,8.13
2018-04-22T23:07:35.240Z,8.33
2018-04-22T23:10:04.336Z,8.73
2018-04-22T23:12:33.272Z,7.80
2018-04-22T23:15:02.164Z,7.53
2018-04-22T23:17:31.331Z,8.43
2018-04-22T23:20:00.251Z,7.33
2018-04-22T23:22:29.549Z,8.10
2018-04-22T23:24:58.508Z,7.43
2018-04-22T23:27:27.392Z,6.70
2018-04-22T23:29:56.469Z,6.97
2018-04-22T23:32:25.468Z,7.03
2018-04-22T23:34:55.175Z,7.73
2018-04-22T23:37:24.067Z,7.77
2018-04-22T23:39:52.977Z,8.03
2018-04-22T23:42:21.909Z,8.47
2018-04-22T23:44:50.959Z,9.17
2018-04-22T23:47:20.028Z,9.47
2018-04-22T23:49:48.923Z,9.00
2018-04-22T23:52:17.866Z,9.90
2018-04-22T23:54:46.766Z,9.07
2018-04-22T23:57:15.768Z,9.80
2018-04-22T23:59:45.544Z,9.20
